createdAt,value
2017-05-23T00:02:13.385Z,70.50
2017-05-23T00:04:40.571Z,70.30
2017-05-23T00:07:07.722Z,70.40
2017-05-23T00:09:34.926Z,71.30
2017-05-23T00:12:02.117Z,70.70
2017-05-23T00:14:29.403Z,70.30
2017-05-23T00:16:56.723Z,70.40
2017-05-23T00:19:24.131Z,71.10
2017-05-23T00:21:51.460Z,70.70
2017-05-23T00:24:18.686Z,70.70
2017-05-23T00:26:45.829Z,71.00
2017-05-23T00:29:13.179Z,70.70
2017-05-23T00:31:40.356Z,70.60
2017-05-23T00:34:07.573Z,70.60
2017-05-23T00:36:34.825Z,71.00
2017-05-23T00:39:03.167Z,71.40
2017-05-23T00:41:30.466Z,71.20
2017-05-23T00:43:58.672Z,70.80
2017-05-23T00:46:25.918Z,71.00
2017-05-23T00:48:53.073Z,71.40
2017-05-23T00:51:20.554Z,71.30
2017-05-23T00:53:47.738Z,71.00
2017-05-23T00:56:16.069Z,71.50
2017-05-23T00:58:43.247Z,71.90
2017-05-23T01:01:10.514Z,71.70
2017-05-23T01:03:37.681Z,71.90
2017-05-23T01:06:05.071Z,72.20
2017-05-23T01:08:32.252Z,72.70
2017-05-23T01:10:59.431Z,73.90
2017-05-23T01:13:27.166Z,73.30
2017-05-23T01:15:54.344Z,74.30
2017-05-23T01:18:21.549Z,74.00
2017-05-23T01:20:48.747Z,74.80
2017-05-23T01:23:15.911Z,75.30
2017-05-23T01:25:43.065Z,74.80
2017-05-23T01:28:10.442Z,75.10
2017-05-23T01:30:37.627Z,75.40
2017-05-23T01:33:04.807Z,75.70
2017-05-23T01:35:31.982Z,75.00
2017-05-23T01:37:59.210Z,74.70
2017-05-23T01:40:26.414Z,74.30
2017-05-23T01:42:54.148Z,74.20
2017-05-23T01:45:21.392Z,74.70
2017-05-23T01:47:48.563Z,75.20
2017-05-23T01:50:15.940Z,74.80
2017-05-23T01:52:43.133Z,75.10
2017-05-23T01:55:10.652Z,75.90
2017-05-23T01:57:37.963Z,76.30
2017-05-23T02:00:05.146Z,76.40
2017-05-23T02:02:32.355Z,77.00
2017-05-23T02:07:33.477Z,76.80
2017-05-23T02:10:00.740Z,76.50
2017-05-23T02:12:27.882Z,76.10
2017-05-23T02:14:55.143Z,75.90
2017-05-23T02:17:22.306Z,76.30
2017-05-23T02:19:49.474Z,76.30
2017-05-23T02:22:16.806Z,75.20
2017-05-23T02:24:49.369Z,74.70
2017-05-23T02:27:16.926Z,74.10
2017-05-23T02:29:44.112Z,74.60
2017-05-23T02:32:11.554Z,74.30
2017-05-23T02:34:38.816Z,74.20
2017-05-23T02:37:06.050Z,73.90
2017-05-23T02:39:33.240Z,72.80
2017-05-23T02:42:00.892Z,72.90
2017-05-23T02:44:28.053Z,73.20
2017-05-23T02:46:55.207Z,72.90
2017-05-23T02:49:22.520Z,72.90
2017-05-23T02:51:49.726Z,72.90
2017-05-23T02:54:16.894Z,72.80
2017-05-23T02:56:44.074Z,72.70
2017-05-23T02:59:12.209Z,72.20
2017-05-23T03:01:39.364Z,72.80
2017-05-23T03:04:06.609Z,71.70
2017-05-23T03:06:33.753Z,72.20
2017-05-23T03:09:00.917Z,72.90
2017-05-23T03:11:28.095Z,73.80
2017-05-23T03:13:55.320Z,74.50
2017-05-23T03:16:22.578Z,74.00
2017-05-23T03:18:49.751Z,73.60
2017-05-23T03:21:17.131Z,72.80
2017-05-23T03:23:44.397Z,72.00
2017-05-23T03:26:11.596Z,72.30
2017-05-23T03:28:38.808Z,72.30
2017-05-23T03:31:05.932Z,73.10
2017-05-23T03:33:33.116Z,72.90
2017-05-23T03:36:00.320Z,73.30
2017-05-23T03:38:27.515Z,73.20
2017-05-23T03:40:54.967Z,73.90
2017-05-23T03:43:22.324Z,74.30
2017-05-23T03:45:50.128Z,73.40
2017-05-23T03:48:17.308Z,72.40
2017-05-23T03:50:44.485Z,71.10
2017-05-23T03:53:11.692Z,70.70
2017-05-23T03:55:38.890Z,70.80
2017-05-23T03:58:06.046Z,71.60
2017-05-23T04:00:33.523Z,72.60
2017-05-23T04:03:00.718Z,71.80
2017-05-23T04:05:27.890Z,71.60
2017-05-23T04:07:55.091Z,71.70
2017-05-23T04:10:22.503Z,71.40
2017-05-23T04:12:49.643Z,70.90
2017-05-23T04:15:16.813Z,70.10
2017-05-23T04:17:44.030Z,69.50
2017-05-23T04:20:11.168Z,69.20
2017-05-23T04:22:38.320Z,70.00
2017-05-23T04:25:05.530Z,68.70
2017-05-23T04:27:32.720Z,68.40
2017-05-23T04:29:59.863Z,67.50
2017-05-23T04:32:27.030Z,67.20
2017-05-23T04:34:54.207Z,67.20
2017-05-23T04:37:21.362Z,67.20
2017-05-23T04:39:48.645Z,66.50
2017-05-23T04:42:15.783Z,66.40
2017-05-23T04:44:43.510Z,66.20
2017-05-23T04:47:10.698Z,65.40
2017-05-23T04:49:37.847Z,66.10
2017-05-23T04:52:05.042Z,65.60
2017-05-23T04:54:32.225Z,65.70
2017-05-23T04:56:59.390Z,65.30
2017-05-23T04:59:26.586Z,66.70
2017-05-23T05:01:53.771Z,66.10
2017-05-23T05:04:21.438Z,66.70
2017-05-23T05:06:48.767Z,67.30
2017-05-23T05:09:16.007Z,67.70
2017-05-23T05:11:43.152Z,67.30
2017-05-23T05:14:10.967Z,67.30
2017-05-23T05:16:38.130Z,67.60
2017-05-23T05:19:05.268Z,66.50
2017-05-23T05:21:32.982Z,67.00
2017-05-23T05:24:00.256Z,67.30
2017-05-23T05:26:27.419Z,66.90
2017-05-23T05:28:54.599Z,66.40
2017-05-23T05:31:21.790Z,66.80
2017-05-23T05:33:48.939Z,66.80
2017-05-23T05:36:16.113Z,66.60
2017-05-23T05:38:43.290Z,66.10
2017-05-23T05:41:10.459Z,65.60
2017-05-23T05:43:37.612Z,66.00
2017-05-23T05:46:04.879Z,65.60
2017-05-23T05:48:32.030Z,64.20
2017-05-23T05:50:59.183Z,63.40
2017-05-23T05:53:26.409Z,63.20
2017-05-23T05:55:53.546Z,62.70
2017-05-23T05:58:20.696Z,63.20
2017-05-23T06:00:48.009Z,62.80
2017-05-23T06:03:15.163Z,63.30
2017-05-23T06:05:42.362Z,63.00
2017-05-23T06:08:09.565Z,62.60
2017-05-23T06:10:36.874Z,64.10
2017-05-23T06:13:09.953Z,64.50
2017-05-23T06:15:37.494Z,63.70
2017-05-23T06:18:05.204Z,63.00
2017-05-23T06:20:32.382Z,62.70
2017-05-23T06:22:59.529Z,62.80
2017-05-23T06:25:26.846Z,62.40
2017-05-23T06:27:54.224Z,62.10
2017-05-23T06:30:21.909Z,62.90
2017-05-23T06:32:49.294Z,62.60
2017-05-23T06:35:16.777Z,63.90
2017-05-23T06:37:44.116Z,64.30
2017-05-23T06:40:11.340Z,66.10
2017-05-23T06:42:38.702Z,65.80
2017-05-23T06:45:06.235Z,65.40
2017-05-23T06:47:33.490Z,65.90
2017-05-23T06:50:00.678Z,65.60
2017-05-23T06:52:27.858Z,65.70
2017-05-23T06:54:55.696Z,65.80
2017-05-23T06:57:22.901Z,64.90
2017-05-23T06:59:50.066Z,64.20
2017-05-23T07:02:17.231Z,63.50
2017-05-23T07:04:58.967Z,62.80
2017-05-23T07:07:26.171Z,62.80
2017-05-23T07:09:53.332Z,62.20
2017-05-23T07:12:20.607Z,59.80
2017-05-23T07:14:47.760Z,59.50
2017-05-23T07:17:14.963Z,58.60
2017-05-23T07:19:42.278Z,57.10
2017-05-23T07:22:09.460Z,56.70
2017-05-23T07:24:36.650Z,54.60
2017-05-23T07:27:03.842Z,54.60
2017-05-23T07:29:31.045Z,53.00
2017-05-23T07:31:58.200Z,52.30
2017-05-23T07:34:25.392Z,51.60
2017-05-23T07:36:52.618Z,51.20
2017-05-23T07:39:19.789Z,50.70
2017-05-23T07:41:47.018Z,50.50
2017-05-23T07:44:14.235Z,50.80
2017-05-23T07:46:41.391Z,51.10
2017-05-23T07:49:08.636Z,51.30
2017-05-23T07:51:36.386Z,52.40
2017-05-23T07:54:03.578Z,52.50
2017-05-23T07:56:31.733Z,52.10
2017-05-23T07:58:59.001Z,51.60
2017-05-23T08:01:26.150Z,52.00
2017-05-23T08:03:53.345Z,51.60
2017-05-23T08:06:20.550Z,50.40
2017-05-23T08:08:47.877Z,50.50
2017-05-23T08:11:15.073Z,52.10
2017-05-23T08:13:42.879Z,50.80
2017-05-23T08:16:10.030Z,51.40
2017-05-23T08:18:37.279Z,50.90
2017-05-23T08:21:04.464Z,50.60
2017-05-23T08:23:31.836Z,51.50
2017-05-23T08:25:59.106Z,51.70
2017-05-23T08:28:26.294Z,50.80
2017-05-23T08:30:54.539Z,49.70
2017-05-23T08:33:21.767Z,49.70
2017-05-23T08:35:48.970Z,50.00
2017-05-23T08:38:16.185Z,49.20
2017-05-23T08:40:43.647Z,49.10
2017-05-23T08:43:36.191Z,48.80
2017-05-23T08:46:03.366Z,49.30
2017-05-23T08:48:30.517Z,48.90
2017-05-23T08:50:57.741Z,48.10
2017-05-23T08:53:24.912Z,47.60
2017-05-23T08:55:52.119Z,47.50
2017-05-23T08:58:19.344Z,46.30
2017-05-23T09:00:46.715Z,47.20
2017-05-23T09:03:14.650Z,47.90
2017-05-23T09:05:41.792Z,48.40
2017-05-23T09:08:08.980Z,47.80
2017-05-23T09:10:36.122Z,47.70
2017-05-23T09:13:03.292Z,46.30
2017-05-23T09:15:30.504Z,47.00
2017-05-23T09:17:57.667Z,47.00
2017-05-23T09:20:24.834Z,44.90
2017-05-23T09:22:52.250Z,46.50
2017-05-23T09:25:34.300Z,45.20
2017-05-23T09:28:01.499Z,45.70
2017-05-23T09:30:28.686Z,46.30
2017-05-23T09:32:56.274Z,46.10
2017-05-23T09:35:30.414Z,46.10
2017-05-23T09:37:57.788Z,46.90
2017-05-23T09:40:25.111Z,45.90
2017-05-23T09:42:52.316Z,46.30
2017-05-23T09:45:19.501Z,45.80
2017-05-23T09:47:46.680Z,45.80
2017-05-23T09:50:14.375Z,45.60
2017-05-23T09:52:41.561Z,45.50
2017-05-23T09:55:08.725Z,45.30
2017-05-23T09:57:35.903Z,44.80
2017-05-23T10:00:03.276Z,43.90
2017-05-23T10:02:30.458Z,43.70
2017-05-23T10:04:57.642Z,43.00
2017-05-23T10:07:24.862Z,42.20
2017-05-23T10:09:52.027Z,42.70
2017-05-23T10:12:26.363Z,40.90
2017-05-23T10:14:53.553Z,37.20
2017-05-23T10:17:20.982Z,32.10
2017-05-23T10:19:48.130Z,30.20
2017-05-23T10:22:15.286Z,29.10
2017-05-23T10:24:42.447Z,26.70
2017-05-23T10:27:09.603Z,27.90
2017-05-23T10:29:37.175Z,29.60
2017-05-23T10:32:04.660Z,31.00
2017-05-23T10:34:31.823Z,30.50
2017-05-23T10:36:58.983Z,27.40
2017-05-23T10:39:26.135Z,23.30
2017-05-23T10:41:53.322Z,21.00
2017-05-23T10:44:20.707Z,20.40
2017-05-23T10:46:47.854Z,17.50
2017-05-23T10:49:15.139Z,17.10
2017-05-23T10:51:42.283Z,16.70
2017-05-23T10:54:09.473Z,15.50
2017-05-23T10:56:36.755Z,14.20
2017-05-23T10:59:03.966Z,13.60
2017-05-23T11:01:31.839Z,13.50
2017-05-23T11:03:59.063Z,13.60
2017-05-23T11:06:26.219Z,13.00
2017-05-23T11:08:53.399Z,13.10
2017-05-23T11:11:20.683Z,13.20
2017-05-23T11:13:47.870Z,12.60
2017-05-23T11:16:15.057Z,12.40
2017-05-23T11:18:42.355Z,12.70
2017-05-23T11:21:09.516Z,12.00
2017-05-23T11:23:36.887Z,11.60
2017-05-23T11:26:04.071Z,12.10
2017-05-23T11:28:32.194Z,11.60
2017-05-23T11:30:59.446Z,12.00
2017-05-23T11:33:26.738Z,11.80
2017-05-23T11:35:53.890Z,11.20
2017-05-23T11:38:21.156Z,11.90
2017-05-23T11:40:48.349Z,11.10
2017-05-23T11:43:15.652Z,11.90
2017-05-23T11:45:42.863Z,11.80
2017-05-23T11:48:10.054Z,12.00
2017-05-23T11:50:37.257Z,11.90
2017-05-23T11:53:04.439Z,11.60
2017-05-23T11:55:31.634Z,11.40
2017-05-23T11:57:58.811Z,11.60
2017-05-23T12:00:26.007Z,11.60
2017-05-23T12:02:53.211Z,11.50
2017-05-23T12:05:20.419Z,11.10
2017-05-23T12:07:47.572Z,10.50
2017-05-23T12:10:14.919Z,10.90
2017-05-23T12:12:42.084Z,11.80
2017-05-23T12:15:09.248Z,11.40
2017-05-23T12:17:36.410Z,10.30
2017-05-23T12:20:03.556Z,10.30
2017-05-23T12:22:30.800Z,11.70
2017-05-23T12:24:58.092Z,12.10
2017-05-23T12:27:25.290Z,10.70
2017-05-23T12:29:53.069Z,10.50
2017-05-23T12:32:20.407Z,10.80
2017-05-23T12:34:47.589Z,10.30
2017-05-23T12:37:14.750Z,10.50
2017-05-23T12:39:47.132Z,10.80
2017-05-23T12:42:15.270Z,10.90
2017-05-23T12:44:42.423Z,13.40
2017-05-23T12:47:09.954Z,16.90
2017-05-23T12:49:37.229Z,20.70
2017-05-23T12:52:04.419Z,22.60
2017-05-23T12:54:31.829Z,16.00
2017-05-23T12:56:59.360Z,19.60
2017-05-23T12:59:27.279Z,23.10
2017-05-23T13:01:54.454Z,25.00
2017-05-23T13:04:21.754Z,27.70
2017-05-23T13:06:58.226Z,28.30
2017-05-23T13:10:01.126Z,29.20
2017-05-23T13:12:28.823Z,27.50
2017-05-23T13:14:56.390Z,26.50
2017-05-23T13:17:23.697Z,28.30
2017-05-23T13:20:36.680Z,28.90
2017-05-23T13:23:09.797Z,27.70
2017-05-23T13:25:42.321Z,28.80
2017-05-23T13:28:10.088Z,29.20
2017-05-23T13:30:50.487Z,28.70
2017-05-23T13:33:18.618Z,28.60
2017-05-23T13:35:47.983Z,29.00
2017-05-23T13:38:15.174Z,29.30
2017-05-23T13:40:42.550Z,29.80
2017-05-23T13:43:11.942Z,31.00
2017-05-23T13:45:39.089Z,31.40
2017-05-23T13:48:07.190Z,32.00
2017-05-23T13:50:35.210Z,32.10
2017-05-23T13:53:02.412Z,33.50
2017-05-23T13:55:29.565Z,33.60
2017-05-23T13:57:56.831Z,33.80
2017-05-23T14:00:23.983Z,32.70
2017-05-23T14:02:51.156Z,33.10
2017-05-23T14:05:19.079Z,33.10
2017-05-23T14:07:46.206Z,34.30
2017-05-23T14:10:13.401Z,34.10
2017-05-23T14:12:45.117Z,33.60
2017-05-23T14:15:12.303Z,33.90
2017-05-23T14:17:39.507Z,34.50
2017-05-23T14:20:06.708Z,35.00
2017-05-23T14:22:33.908Z,34.30
2017-05-23T14:25:01.285Z,34.10
2017-05-23T14:27:28.908Z,34.30
2017-05-23T14:29:57.301Z,33.40
2017-05-23T14:32:24.845Z,33.50
2017-05-23T14:34:59.294Z,33.40
2017-05-23T14:37:26.421Z,34.20
2017-05-23T14:39:53.786Z,34.40
2017-05-23T14:42:20.961Z,35.10
2017-05-23T14:44:48.301Z,36.30
2017-05-23T14:47:15.429Z,36.40
2017-05-23T14:49:43.551Z,35.40
2017-05-23T14:52:13.182Z,35.40
2017-05-23T14:54:40.383Z,35.60
2017-05-23T14:57:07.844Z,36.00
2017-05-23T14:59:34.974Z,34.90
2017-05-23T15:02:02.502Z,35.50
2017-05-23T15:04:30.373Z,34.60
2017-05-23T15:06:57.532Z,35.30
2017-05-23T15:09:34.607Z,34.60
2017-05-23T15:12:01.775Z,36.10
2017-05-23T15:14:29.045Z,36.70
2017-05-23T15:16:56.301Z,36.70
2017-05-23T15:19:30.452Z,36.40
2017-05-23T15:21:57.864Z,36.20
2017-05-23T15:24:25.310Z,34.90
2017-05-23T15:26:52.963Z,30.80
2017-05-23T15:29:20.165Z,30.00
2017-05-23T15:31:47.453Z,30.20
2017-05-23T15:34:14.651Z,29.60
2017-05-23T15:36:41.873Z,29.10
2017-05-23T15:39:09.108Z,30.00
2017-05-23T15:41:36.380Z,33.20
2017-05-23T15:44:03.938Z,36.00
2017-05-23T15:46:31.644Z,37.10
2017-05-23T15:48:59.458Z,36.00
2017-05-23T15:51:26.713Z,36.50
2017-05-23T15:53:53.892Z,36.10
2017-05-23T15:56:21.253Z,35.80
2017-05-23T15:58:48.756Z,36.00
2017-05-23T16:01:15.898Z,36.80
2017-05-23T16:03:43.069Z,37.10
2017-05-23T16:06:10.366Z,38.10
2017-05-23T16:08:37.533Z,38.30
2017-05-23T16:11:04.913Z,38.90
2017-05-23T16:13:32.111Z,38.60
2017-05-23T16:15:59.335Z,39.40
2017-05-23T16:18:26.682Z,40.10
2017-05-23T16:20:53.929Z,40.30
2017-05-23T16:23:21.118Z,39.80
2017-05-23T16:25:48.568Z,40.30
2017-05-23T16:28:15.779Z,42.00
2017-05-23T16:30:43.003Z,42.20
2017-05-23T16:33:10.390Z,42.20
2017-05-23T16:35:37.619Z,42.70
2017-05-23T16:38:05.327Z,42.90
2017-05-23T16:40:32.491Z,43.10
2017-05-23T16:42:59.802Z,43.70
2017-05-23T16:45:27.980Z,44.30
2017-05-23T16:47:55.294Z,45.00
2017-05-23T16:50:22.696Z,44.00
2017-05-23T16:52:49.974Z,45.10
2017-05-23T16:55:17.301Z,46.00
2017-05-23T16:57:44.547Z,45.80
2017-05-23T17:00:11.865Z,46.20
2017-05-23T17:02:39.259Z,43.20
2017-05-23T17:05:06.523Z,43.90
2017-05-23T17:07:33.961Z,45.90
2017-05-23T17:10:01.309Z,46.60
2017-05-23T17:12:28.765Z,47.10
2017-05-23T17:14:56.668Z,47.60
2017-05-23T17:17:23.839Z,45.20
2017-05-23T17:19:51.817Z,46.10
2017-05-23T17:22:18.961Z,45.30
2017-05-23T17:24:46.157Z,47.80
2017-05-23T17:27:13.501Z,47.70
2017-05-23T17:29:40.834Z,47.80
2017-05-23T17:32:07.992Z,46.50
2017-05-23T17:34:35.713Z,47.90
2017-05-23T17:37:02.199Z,48.00
2017-05-23T17:39:29.504Z,47.80
2017-05-23T17:41:56.709Z,48.40
2017-05-23T17:44:23.931Z,47.60
2017-05-23T17:46:56.787Z,46.00
2017-05-23T17:49:23.954Z,47.90
2017-05-23T17:51:51.204Z,47.20
2017-05-23T17:54:18.682Z,47.50
2017-05-23T17:56:45.851Z,49.00
2017-05-23T17:59:13.694Z,50.00
2017-05-23T18:01:40.887Z,50.00
2017-05-23T18:04:08.694Z,49.40
2017-05-23T18:06:35.940Z,50.70
2017-05-23T18:09:03.303Z,50.00
2017-05-23T18:11:31.088Z,51.80
2017-05-23T18:13:58.275Z,52.00
2017-05-23T18:16:25.487Z,53.60
2017-05-23T18:18:52.671Z,54.50
2017-05-23T18:21:19.925Z,54.80
2017-05-23T18:23:47.117Z,55.90
2017-05-23T18:26:14.297Z,56.10
2017-05-23T18:28:41.471Z,54.80
2017-05-23T18:31:08.766Z,54.30
2017-05-23T18:33:36.720Z,49.80
2017-05-23T18:36:08.492Z,49.00
2017-05-23T18:38:35.774Z,47.50
2017-05-23T18:41:03.939Z,47.00
2017-05-23T18:43:31.450Z,46.60
2017-05-23T18:45:58.794Z,48.90
2017-05-23T18:48:26.064Z,50.90
2017-05-23T18:50:53.353Z,52.70
2017-05-23T18:53:20.557Z,54.20
2017-05-23T18:55:47.761Z,55.40
2017-05-23T18:58:15.061Z,55.90
2017-05-23T19:00:42.967Z,56.70
2017-05-23T19:03:10.163Z,56.90
2017-05-23T19:05:37.366Z,57.50
2017-05-23T19:08:04.856Z,57.70
2017-05-23T19:10:32.134Z,58.40
2017-05-23T19:12:59.531Z,59.20
2017-05-23T19:15:26.959Z,59.80
2017-05-23T19:17:54.183Z,59.40
2017-05-23T19:20:21.381Z,59.50
2017-05-23T19:22:48.692Z,59.90
2017-05-23T19:25:15.900Z,59.90
2017-05-23T19:27:43.071Z,60.00
2017-05-23T19:30:10.464Z,59.80
2017-05-23T19:32:37.782Z,60.60
2017-05-23T19:35:05.018Z,61.50
2017-05-23T19:37:32.275Z,61.70
2017-05-23T19:39:59.475Z,61.50
2017-05-23T19:42:26.905Z,61.70
2017-05-23T19:44:54.143Z,61.20
2017-05-23T19:47:21.449Z,61.30
2017-05-23T19:49:48.649Z,61.10
2017-05-23T19:52:15.877Z,61.20
2017-05-23T19:54:43.069Z,61.20
2017-05-23T19:57:10.475Z,61.00
2017-05-23T19:59:37.659Z,60.80
2017-05-23T20:02:04.957Z,60.50
2017-05-23T20:04:33.514Z,60.50
2017-05-23T20:07:00.763Z,60.00
2017-05-23T20:09:27.958Z,60.50
2017-05-23T20:11:55.161Z,60.50
2017-05-23T20:14:22.452Z,60.10
2017-05-23T20:16:49.671Z,60.70
2017-05-23T20:19:17.636Z,60.70
2017-05-23T20:21:44.869Z,61.40
2017-05-23T20:24:12.130Z,61.30
2017-05-23T20:26:39.351Z,61.60
2017-05-23T20:29:07.631Z,61.80
2017-05-23T20:31:34.843Z,62.10
2017-05-23T20:34:02.255Z,62.00
2017-05-23T20:36:29.703Z,62.20
2017-05-23T20:38:57.050Z,62.70
2017-05-23T20:41:24.363Z,62.60
2017-05-23T20:43:51.568Z,62.60
2017-05-23T20:46:18.873Z,63.60
2017-05-23T20:48:46.181Z,63.80
2017-05-23T20:51:13.362Z,64.20
2017-05-23T20:53:40.756Z,64.20
2017-05-23T20:56:07.927Z,64.80
2017-05-23T20:58:35.114Z,64.30
2017-05-23T21:01:02.448Z,64.50
2017-05-23T21:03:29.618Z,65.10
2017-05-23T21:05:56.948Z,66.10
2017-05-23T21:08:24.165Z,65.40
2017-05-23T21:10:51.314Z,65.40
2017-05-23T21:13:18.503Z,65.70
2017-05-23T21:15:46.173Z,65.00
2017-05-23T21:18:13.352Z,64.60
2017-05-23T21:20:40.520Z,64.90
2017-05-23T21:23:07.736Z,64.70
2017-05-23T21:25:34.904Z,65.50
2017-05-23T21:28:02.078Z,65.70
2017-05-23T21:30:29.382Z,66.30
2017-05-23T21:32:57.112Z,65.90
2017-05-23T21:35:24.297Z,67.10
2017-05-23T21:37:51.485Z,67.40
2017-05-23T21:40:18.649Z,66.70
2017-05-23T21:42:45.866Z,66.30
2017-05-23T21:45:13.023Z,66.90
2017-05-23T21:47:40.313Z,66.10
2017-05-23T21:50:07.572Z,65.10
2017-05-23T21:52:34.728Z,64.80
2017-05-23T21:55:01.976Z,66.00
2017-05-23T21:57:29.257Z,65.70
2017-05-23T21:59:57.160Z,65.80
2017-05-23T22:02:24.338Z,65.20
2017-05-23T22:04:51.546Z,65.60
2017-05-23T22:07:18.868Z,65.20
2017-05-23T22:09:46.041Z,64.70
2017-05-23T22:12:13.223Z,64.60
2017-05-23T22:14:41.145Z,65.40
2017-05-23T22:17:08.446Z,66.30
2017-05-23T22:19:35.614Z,66.00
2017-05-23T22:22:03.112Z,66.20
2017-05-23T22:24:30.450Z,67.40
2017-05-23T22:27:04.535Z,68.30
2017-05-23T22:29:31.728Z,69.20
2017-05-23T22:31:59.011Z,69.70
2017-05-23T22:34:26.408Z,68.40
2017-05-23T22:36:53.638Z,69.00
2017-05-23T22:39:21.457Z,69.70
2017-05-23T22:41:48.669Z,68.50
2017-05-23T22:44:16.002Z,68.70
2017-05-23T22:46:43.288Z,69.80
2017-05-23T22:49:11.009Z,69.70
2017-05-23T22:51:38.507Z,70.10
2017-05-23T22:54:05.667Z,70.30
2017-05-23T22:56:32.868Z,70.40
2017-05-23T22:59:00.174Z,70.90
2017-05-23T23:01:27.401Z,70.60
2017-05-23T23:03:54.572Z,70.30
2017-05-23T23:06:21.766Z,69.50
2017-05-23T23:08:48.969Z,69.00
2017-05-23T23:11:16.139Z,69.40
2017-05-23T23:13:50.344Z,71.50
2017-05-23T23:16:17.566Z,72.50
2017-05-23T23:18:44.878Z,72.80
2017-05-23T23:21:12.039Z,72.50
2017-05-23T23:23:39.234Z,71.70
2017-05-23T23:26:06.611Z,71.80
2017-05-23T23:28:33.762Z,71.40
2017-05-23T23:31:00.935Z,71.30
2017-05-23T23:33:28.091Z,71.90
2017-05-23T23:35:55.418Z,71.30
2017-05-23T23:38:22.669Z,72.00
2017-05-23T23:40:49.849Z,73.00
2017-05-23T23:43:17.075Z,72.40
2017-05-23T23:45:44.693Z,72.40
2017-05-23T23:48:11.865Z,73.10
2017-05-23T23:50:46.123Z,73.40
2017-05-23T23:53:13.327Z,74.10
2017-05-23T23:55:40.590Z,74.80
2017-05-23T23:58:07.833Z,74.30
